Time;durP1;ratioP1;P1;durP2;ratioP2;P2;SDS_P1;SDS_P2;PMS_P1;PMS_P2;Temp;Humidity;BMP_temperature;BMP_pressure;BME280_temperature;BME280_humidity;BME280_pressure;Samples;Min_cycle;Max_cycle;Signal;HPM_P1;HPM_P2
2022/04/28 00:04:09;;;;;;;290.95;277.10;;;;;;;5.77;100.00;102835.78;10504426;28;20044;-55
2022/04/28 00:09:11;;;;;;;296.83;282.17;;;;;;;6.04;100.00;102841.75;10504356;28;20407;-56
2022/04/28 00:14:14;;;;;;;295.83;281.73;;;;;;;5.81;100.00;102847.03;10504150;28;20052;-56
2022/04/28 00:19:16;;;;;;;288.25;274.30;;;;;;;5.60;100.00;102840.19;10503906;28;20510;-56
2022/04/28 00:24:18;;;;;;;294.08;279.67;;;;;;;5.49;100.00;102844.56;10504315;28;20044;-56
2022/04/28 00:29:21;;;;;;;285.48;271.92;;;;;;;5.62;100.00;102848.00;10504202;28;20048;-56
2022/04/28 00:34:24;;;;;;;274.30;261.17;;;;;;;5.31;100.00;102841.16;10504060;28;20052;-56
2022/04/28 00:39:26;;;;;;;266.58;253.55;;;;;;;5.43;100.00;102845.47;10519421;28;20048;-55
2022/04/28 00:44:28;;;;;;;264.33;251.50;;;;;;;5.25;100.00;102845.50;10503563;28;20040;-56
2022/04/28 00:54:53;;;;;;;253.73;240.77;;;;;;;5.20;100.00;102848.09;10503351;28;20048;-55
2022/04/28 00:59:55;;;;;;;233.13;221.98;;;;;;;5.00;100.00;102855.91;10503141;28;20049;-55
2022/04/28 01:04:57;;;;;;;224.88;213.82;;;;;;;5.29;100.00;102855.00;10502247;28;20395;-56
2022/04/28 01:10:00;;;;;;;212.05;201.80;;;;;;;5.09;100.00;102860.22;10518286;28;20048;-56
2022/04/28 01:15:02;;;;;;;193.07;183.23;;;;;;;5.05;100.00;102861.13;10501755;28;20052;-55
2022/04/28 01:20:05;;;;;;;185.68;175.85;;;;;;;4.93;100.00;102852.47;10501612;28;20048;-55
2022/04/28 01:25:09;;;;;;;174.10;164.80;;;;;;;5.08;100.00;102849.00;10501806;28;20044;-56
2022/04/28 01:30:14;;;;;;;149.45;140.95;;;;;;;5.06;100.00;102850.72;10501817;28;20045;-56
2022/04/28 01:35:16;;;;;;;132.10;125.22;;;;;;;4.80;100.00;102853.34;10502266;28;20045;-56
2022/04/28 01:40:19;;;;;;;120.43;113.70;;;;;;;4.88;100.00;102858.53;10501468;28;20048;-56
2022/04/28 01:45:21;;;;;;;108.75;102.22;;;;;;;4.92;100.00;102855.91;10501173;28;20055;-56
2022/04/28 01:50:23;;;;;;;108.00;101.85;;;;;;;4.91;100.00;102849.00;10500539;28;20052;-55
2022/04/28 01:55:26;;;;;;;71.63;67.53;;;;;;;4.70;100.00;102856.81;10500820;28;20044;-56
2022/04/28 02:00:29;;;;;;;67.32;63.20;;;;;;;5.05;100.00;102859.38;10516206;28;20049;-56
2022/04/28 02:05:31;;;;;;;55.53;51.58;;;;;;;4.93;100.00;102854.22;10500371;28;20040;-56
2022/04/28 02:10:34;;;;;;;39.92;36.15;;;;;;;4.76;100.00;102847.28;10500168;28;20059;-56
2022/04/28 02:15:37;;;;;;;33.33;30.75;;;;;;;4.70;100.00;102849.00;10499190;28;20060;-56
2022/04/28 02:20:40;;;;;;;28.45;24.38;;;;;;;4.65;100.00;102854.19;10499228;28;20059;-56
2022/04/28 02:25:42;;;;;;;20.17;18.23;;;;;;;4.64;100.00;102860.28;10499526;28;20052;-56
2022/04/28 02:30:44;;;;;;;24.02;17.88;;;;;;;4.45;100.00;102862.84;10498340;28;20052;-55
2022/04/28 02:35:47;;;;;;;13.98;12.40;;;;;;;4.55;100.00;102873.22;10498698;28;20395;-55
2022/04/28 02:40:49;;;;;;;16.83;12.20;;;;;;;4.55;100.00;102871.47;10499211;28;20044;-55
2022/04/28 02:45:51;;;;;;;15.93;14.07;;;;;;;4.45;100.00;102867.16;10499006;28;20051;-56
2022/04/28 02:50:54;;;;;;;18.60;11.52;;;;;;;4.39;100.00;102869.75;10498959;28;20052;-56
2022/04/28 02:55:56;;;;;;;15.30;11.07;;;;;;;4.53;100.00;102872.38;10498215;28;20388;-56
2022/04/28 03:00:58;;;;;;;20.33;10.85;;;;;;;4.24;100.00;102871.44;10497263;28;20056;-55
2022/04/28 03:11:23;;;;;;;16.27;10.57;;;;;;;4.46;100.00;102864.56;10497950;28;20399;-56
2022/04/28 03:16:25;;;;;;;20.48;11.40;;;;;;;4.38;100.00;102866.28;10497676;28;20511;-55
2022/04/28 03:21:28;;;;;;;16.83;12.65;;;;;;;4.12;100.00;102874.00;10498348;28;20049;-56
2022/04/28 03:26:31;;;;;;;17.48;11.15;;;;;;;4.44;100.00;102876.66;10497509;28;20502;-56
2022/04/28 03:31:33;;;;;;;15.23;10.43;;;;;;;4.25;100.00;102877.47;10497509;28;20502;-57
2022/04/28 03:36:51;;;;;;;18.02;11.05;;;;;;;3.99;100.00;102874.84;10496915;28;20128;-55
2022/04/28 03:41:54;;;;;;;18.75;13.73;;;;;;;4.04;100.00;102873.97;10497969;28;20061;-56
2022/04/28 03:46:56;;;;;;;18.13;13.70;;;;;;;4.07;100.00;102873.13;10497841;28;20059;-57
2022/04/28 03:51:58;;;;;;;20.70;14.77;;;;;;;3.92;100.00;102876.53;10497727;28;20071;-55
2022/04/28 03:57:01;;;;;;;19.13;16.88;;;;;;;4.19;100.00;102875.75;10497641;28;20049;-55
2022/04/28 04:02:03;;;;;;;26.08;18.63;;;;;;;4.26;100.00;102869.72;10497539;28;20056;-55
2022/04/28 04:07:06;;;;;;;26.95;23.40;;;;;;;4.01;100.00;102873.97;10497378;28;20055;-55
2022/04/28 04:12:09;;;;;;;31.33;28.60;;;;;;;3.95;100.00;102880.84;10499411;28;20060;-56
2022/04/28 04:17:11;;;;;;;28.73;25.67;;;;;;;4.01;100.00;102883.47;10504125;28;20385;-56
2022/04/28 04:22:13;;;;;;;29.25;24.60;;;;;;;3.87;100.00;102884.28;10504594;28;20053;-57
2022/04/28 04:27:16;;;;;;;29.90;27.25;;;;;;;4.37;100.00;102885.31;10503716;28;20063;-55
2022/04/28 04:32:18;;;;;;;37.85;34.60;;;;;;;3.92;100.00;102894.69;10504199;28;20048;-56
2022/04/28 04:37:23;;;;;;;41.42;37.95;;;;;;;3.99;100.00;102895.56;10504052;28;20055;-55
2022/04/28 04:42:26;;;;;;;47.38;43.90;;;;;;;4.18;100.00;102897.34;10503973;28;20130;-56
2022/04/28 04:47:28;;;;;;;52.65;48.83;;;;;;;4.22;100.00;102896.50;10502395;28;20053;-56
2022/04/28 04:52:30;;;;;;;59.05;54.15;;;;;;;4.36;100.00;102901.72;10502333;28;20178;-56
2022/04/28 04:57:33;;;;;;;52.03;48.38;;;;;;;4.43;100.00;102905.19;10518962;28;20052;-56
2022/04/28 05:02:35;;;;;;;68.50;63.95;;;;;;;4.48;100.00;102913.84;10503123;28;20056;-56
2022/04/28 05:07:38;;;;;;;99.20;92.93;;;;;;;4.49;100.00;102914.72;10502783;28;20051;-56
2022/04/28 05:12:40;;;;;;;123.55;116.07;;;;;;;4.73;100.00;102930.31;10500629;28;20052;-56
2022/04/28 05:17:42;;;;;;;113.40;106.22;;;;;;;4.90;100.00;102930.34;10502429;28;20044;-55
2022/04/28 05:22:44;;;;;;;139.45;131.00;;;;;;;5.08;100.00;102937.28;10501331;28;20059;-56
2022/04/28 05:27:47;;;;;;;138.20;130.05;;;;;;;5.32;100.00;102941.56;10501957;28;20059;-55
2022/04/28 05:32:49;;;;;;;154.35;145.43;;;;;;;5.39;100.00;102937.25;10501841;28;20049;-56
2022/04/28 05:37:52;;;;;;;135.10;126.60;;;;;;;5.73;100.00;102944.97;10499830;28;20438;-55
2022/04/28 05:48:19;;;;;;;172.05;162.57;;;;;;;5.90;100.00;102947.50;10500559;28;20052;-55
2022/04/28 05:53:21;;;;;;;187.57;177.25;;;;;;;5.92;100.00;102956.19;10500865;28;20059;-56
2022/04/28 05:58:23;;;;;;;161.60;152.13;;;;;;;6.03;100.00;102959.63;10500731;28;20053;-55
2022/04/28 06:03:26;;;;;;;184.52;174.40;;;;;;;6.45;100.00;102957.69;10500522;28;20067;-55
2022/04/28 06:08:28;;;;;;;192.45;181.80;;;;;;;6.59;100.00;102964.56;10500297;28;20076;-54
2022/04/28 06:13:31;;;;;;;144.52;136.32;;;;;;;6.75;100.00;102966.19;10499766;28;20060;-56
2022/04/28 06:18:33;;;;;;;138.73;130.88;;;;;;;7.00;100.00;102973.84;10499904;28;20052;-56
2022/04/28 06:23:36;;;;;;;111.90;104.78;;;;;;;6.78;100.00;102981.81;10499733;28;20053;-56
2022/04/28 06:28:38;;;;;;;101.03;95.28;;;;;;;7.00;100.00;102981.66;10498901;28;20044;-55
2022/04/28 06:33:41;;;;;;;62.70;58.97;;;;;;;7.23;99.01;102991.91;10498892;28;20048;-55
2022/04/28 06:38:43;;;;;;;46.97;43.70;;;;;;;7.61;95.60;102994.13;10499367;28;20047;-56
2022/04/28 06:43:45;;;;;;;54.83;50.92;;;;;;;7.43;96.91;102999.53;10499222;28;20059;-56
2022/04/28 06:48:48;;;;;;;43.40;40.08;;;;;;;7.96;95.72;103007.72;10499056;28;20055;-56
2022/04/28 06:53:50;;;;;;;45.92;42.22;;;;;;;8.14;94.73;103006.66;10497135;28;20071;-56
2022/04/28 06:58:53;;;;;;;30.38;27.65;;;;;;;8.20;92.28;103006.56;10498856;28;20057;-56
2022/04/28 07:03:55;;;;;;;18.67;10.95;;;;;;;8.24;89.92;103003.03;10498026;28;20048;-57
2022/04/28 07:08:58;;;;;;;16.13;8.18;;;;;;;8.58;85.34;103010.47;10498623;28;20057;-56
2022/04/28 07:14:00;;;;;;;17.88;9.63;;;;;;;9.16;81.03;103011.31;10498037;28;20063;-56
2022/04/28 07:19:04;;;;;;;15.00;13.63;;;;;;;9.83;76.95;103013.66;10497791;28;20480;-57
2022/04/28 07:24:07;;;;;;;61.42;56.72;;;;;;;9.37;76.38;103020.59;10496378;28;20056;-57
2022/04/28 07:29:09;;;;;;;43.75;40.25;;;;;;;10.48;76.76;103026.34;10498003;28;20048;-56
2022/04/28 07:34:11;;;;;;;105.72;100.38;;;;;;;10.35;73.98;103025.75;10497418;28;20055;-56
2022/04/28 07:39:14;;;;;;;118.32;111.65;;;;;;;11.71;71.83;103028.66;10497964;28;20060;-57
2022/04/28 07:44:16;;;;;;;212.25;201.95;;;;;;;11.58;68.36;103024.63;10497162;28;20060;-57
2022/04/28 07:49:19;;;;;;;274.52;260.60;;;;;;;11.92;66.26;103028.13;10503052;28;20114;-58
2022/04/28 07:54:21;;;;;;;291.00;277.05;;;;;;;12.48;65.26;103025.66;10505637;28;20044;-58
2022/04/28 07:59:23;;;;;;;344.10;327.63;;;;;;;12.83;63.48;103031.63;10505012;28;20450;-57
2022/04/28 08:04:26;;;;;;;365.48;347.77;;;;;;;12.68;62.22;103037.34;10505056;28;20051;-57
2022/04/28 08:09:31;;;;;;;378.45;360.02;;;;;;;12.69;61.47;103033.81;10504989;28;20094;-58
2022/04/28 08:14:39;;;;;;;375.95;357.63;;;;;;;13.91;63.29;103047.31;10504450;28;20060;-58
2022/04/28 08:19:49;;;;;;;392.13;372.67;;;;;;;13.19;62.09;103055.00;10504682;28;20052;-58
2022/04/28 08:24:51;;;;;;;383.00;364.30;;;;;;;13.16;59.59;103048.09;10504379;28;20048;-59
2022/04/28 08:29:53;;;;;;;389.23;369.88;;;;;;;13.68;61.77;103063.06;10504314;28;20064;-58
2022/04/28 08:34:56;;;;;;;376.48;358.02;;;;;;;13.02;58.24;103064.28;10504188;28;20053;-59
2022/04/28 08:39:58;;;;;;;385.13;366.42;;;;;;;14.31;57.78;103079.28;10503963;28;20044;-59
2022/04/28 08:45:01;;;;;;;356.92;339.63;;;;;;;14.50;55.44;103059.19;10503590;28;20049;-59
2022/04/28 08:50:05;;;;;;;353.38;336.17;;;;;;;13.81;57.73;103068.78;10503586;28;20048;-59
2022/04/28 08:55:08;;;;;;;363.33;345.55;;;;;;;14.13;59.48;103064.97;10503432;28;20040;-58
2022/04/28 09:00:11;;;;;;;338.48;322.65;;;;;;;14.67;57.38;103065.63;10501932;28;20060;-59
2022/04/28 09:05:18;;;;;;;326.73;310.55;;;;;;;16.43;53.48;103059.09;10502907;28;20059;-59
2022/04/28 09:10:29;;;;;;;296.35;282.25;;;;;;;14.90;56.62;103050.72;10502759;28;20048;-59
2022/04/28 09:15:32;;;;;;;261.38;248.57;;;;;;;15.16;54.95;103057.56;10502027;28;20056;-58
2022/04/28 09:20:36;;;;;;;240.32;228.48;;;;;;;14.15;54.51;103052.59;10501783;28;20557;-59
2022/04/28 09:25:44;;;;;;;231.25;219.68;;;;;;;15.77;52.04;103065.56;10507409;22;20067;-63
2022/04/28 09:30:49;;;;;;;276.25;262.65;;;;;;;16.95;52.65;103057.59;10459591;28;20053;-63
2022/04/28 09:35:53;;;;;;;222.55;210.15;;;;;;;15.37;52.07;103053.19;10459883;28;20547;-63
2022/04/28 09:46:22;;;;;;;117.07;111.17;;;;;;;16.46;48.96;103055.47;10459292;28;20503;-63
2022/04/28 09:51:25;;;;;;;112.22;106.35;;;;;;;15.57;49.40;103057.63;10459814;28;20082;-63
2022/04/28 09:56:28;;;;;;;122.72;116.60;;;;;;;17.12;49.46;103046.19;10459549;28;20045;-63
2022/04/28 10:01:40;;;;;;;99.90;94.57;;;;;;;18.48;46.40;103045.31;10458752;28;20056;-64
2022/04/28 10:06:43;;;;;;;54.90;51.15;;;;;;;17.21;47.22;103037.78;10474497;28;20102;-64
2022/04/28 10:11:48;;;;;;;39.58;37.05;;;;;;;19.17;44.39;103027.28;10458546;28;20051;-64
2022/04/28 10:16:51;;;;;;;58.35;54.90;;;;;;;18.30;47.07;103026.78;10457032;28;20499;-64
2022/04/28 10:22:04;;;;;;;40.95;38.28;;;;;;;19.49;45.03;103028.84;10458649;28;20056;-64
2022/04/28 10:32:57;;;;;;;39.97;37.17;;;;;;;18.96;46.16;103021.41;10438031;28;20052;-64
2022/04/28 10:38:10;;;;;;;19.98;18.38;;;;;;;21.29;43.46;103018.38;10458129;28;20057;-68
2022/04/28 10:43:23;;;;;;;17.05;15.68;;;;;;;18.90;45.83;103019.97;10457381;28;20400;-68
2022/04/28 10:48:35;;;;;;;12.98;10.27;;;;;;;18.96;44.84;103008.13;10456072;28;20044;-69
2022/04/28 10:54:01;;;;;;;12.48;8.43;;;;;;;19.07;44.51;103014.53;10456996;28;20506;-69
2022/04/28 10:59:32;;;;;;;10.75;5.30;;;;;;;21.52;39.90;103014.19;10457425;28;20067;-68
2022/04/28 11:04:34;;;;;;;10.33;5.13;;;;;;;21.01;40.84;103011.41;10457279;28;20114;-69
2022/04/28 11:09:40;;;;;;;7.40;5.40;;;;;;;21.71;41.98;103003.09;10457169;28;20073;-69
2022/04/28 11:14:47;;;;;;;7.78;4.55;;;;;;;22.10;38.83;103003.88;10455994;28;20136;-69
2022/04/28 11:19:50;;;;;;;5.82;4.40;;;;;;;21.64;42.21;103007.16;10455145;28;20446;-69
2022/04/28 11:24:53;;;;;;;8.70;4.78;;;;;;;20.03;41.62;103004.31;10464253;28;20048;-69
2022/04/28 11:29:58;;;;;;;9.13;4.60;;;;;;;22.81;39.79;102993.38;10464618;28;20057;-69
2022/04/28 11:35:00;;;;;;;10.02;5.00;;;;;;;22.18;40.43;102984.66;10464596;28;20041;-69
2022/04/28 11:40:04;;;;;;;8.85;4.80;;;;;;;21.73;37.49;102984.31;10463793;28;20049;-69
2022/04/28 11:45:31;;;;;;;12.25;6.93;;;;;;;20.26;40.83;102980.75;10464545;28;20099;-69
2022/04/28 11:50:34;;;;;;;10.23;4.68;;;;;;;23.54;37.82;102988.75;10462817;28;20056;-69
2022/04/28 11:55:40;;;;;;;7.32;4.88;;;;;;;22.27;38.94;102976.84;10462588;28;20455;-69
2022/04/28 12:00:46;;;;;;;6.43;4.43;;;;;;;22.45;37.80;102981.81;10463079;28;20060;-69
2022/04/28 12:05:52;;;;;;;8.23;5.13;;;;;;;20.68;39.80;102983.38;10462740;28;20045;-69
2022/04/28 12:16:22;;;;;;;7.88;5.75;;;;;;;23.13;35.72;102979.44;10462560;28;20077;-69
2022/04/28 12:21:35;;;;;;;11.73;6.53;;;;;;;21.96;39.14;102983.53;10462169;28;20049;-69
2022/04/28 12:26:42;;;;;;;10.38;6.75;;;;;;;22.94;36.18;102974.63;10461625;28;20077;-69
2022/04/28 12:31:44;;;;;;;12.90;9.13;;;;;;;21.06;36.62;102978.16;10462086;28;20434;-69
2022/04/28 12:36:54;;;;;;;6.43;5.68;;;;;;;23.19;36.01;102971.78;10462812;28;20053;-69
2022/04/28 12:42:10;;;;;;;9.18;6.50;;;;;;;23.33;35.98;102972.53;10461537;28;20106;-70
2022/04/28 12:47:14;;;;;;;10.13;6.80;;;;;;;24.21;35.36;102962.91;10461665;28;20498;-70
2022/04/28 12:52:27;;;;;;;11.52;7.80;;;;;;;24.64;36.00;102962.09;10462155;28;20061;-70
2022/04/28 12:57:30;;;;;;;84.57;77.13;;;;;;;22.14;35.82;102964.50;10460386;28;20399;-69
2022/04/28 13:02:33;;;;;;;10.65;7.28;;;;;;;22.21;38.35;102952.44;10460684;28;20049;-70
2022/04/28 13:07:36;;;;;;;11.27;6.50;;;;;;;24.43;36.36;102962.88;10461474;28;20045;-69
2022/04/28 13:12:39;;;;;;;21.73;19.80;;;;;;;23.48;35.50;102960.66;10460971;28;20136;-69
2022/04/28 13:17:41;;;;;;;10.23;7.45;;;;;;;23.27;36.91;102951.66;10460025;28;20056;-69
2022/04/28 13:22:44;;;;;;;14.32;7.43;;;;;;;23.69;35.61;102941.22;10460449;28;20053;-69
2022/04/28 13:27:46;;;;;;;10.25;7.95;;;;;;;23.78;36.08;102931.59;10460104;28;20049;-70
2022/04/28 13:32:48;;;;;;;10.80;9.70;;;;;;;24.15;35.58;102924.13;10460586;28;20064;-70
2022/04/28 13:37:51;;;;;;;9.50;8.55;;;;;;;24.26;35.27;102899.19;10460379;28;20095;-70
2022/04/28 13:42:53;;;;;;;9.98;9.38;;;;;;;24.87;33.98;102905.72;10475623;28;20088;-70
2022/04/28 13:47:56;;;;;;;10.13;8.90;;;;;;;22.67;38.48;102906.31;10459215;28;20537;-64
2022/04/28 13:52:58;;;;;;;11.00;10.10;;;;;;;24.43;34.26;102890.59;10458029;28;20057;-65
2022/04/28 13:58:00;;;;;;;11.40;8.70;;;;;;;23.82;35.16;102890.28;10459597;28;20053;-65
2022/04/28 14:03:03;;;;;;;114.32;106.15;;;;;;;20.73;37.89;102885.47;10474176;28;20095;-64
2022/04/28 14:08:06;;;;;;;14.00;12.65;;;;;;;23.63;34.63;102882.88;10458513;28;20549;-64
2022/04/28 14:13:08;;;;;;;13.63;12.27;;;;;;;22.70;34.51;102876.72;10459071;28;20052;-64
2022/04/28 14:18:13;;;;;;;15.13;13.93;;;;;;;25.39;33.00;102877.94;10458211;28;20045;-65
2022/04/28 14:23:15;;;;;;;18.27;16.77;;;;;;;24.32;33.88;102871.03;10458003;28;20583;-65
2022/04/28 14:28:18;;;;;;;17.52;16.13;;;;;;;20.95;40.01;102869.72;10457812;28;20049;-64
2022/04/28 14:33:20;;;;;;;13.90;12.23;;;;;;;24.20;34.16;102870.25;10458263;28;20048;-65
2022/04/28 14:38:23;;;;;;;15.57;14.27;;;;;;;24.33;33.89;102868.25;10457430;28;20400;-64
2022/04/28 14:43:25;;;;;;;17.00;15.63;;;;;;;21.29;36.59;102869.19;10457942;28;20055;-64
2022/04/28 14:48:27;;;;;;;17.05;14.75;;;;;;;22.69;37.61;102866.16;10457654;28;20051;-64
2022/04/28 14:53:34;;;;;;;15.73;14.48;;;;;;;24.39;34.59;102866.88;10457675;28;20049;-64
2022/04/28 14:58:37;;;;;;;15.77;14.50;;;;;;;24.82;34.87;102879.34;10457459;28;20044;-64
2022/04/28 15:03:43;;;;;;;15.10;14.00;;;;;;;22.24;36.50;102869.47;10457356;28;20049;-64
2022/04/28 15:08:46;;;;;;;15.77;14.38;;;;;;;22.96;35.42;102880.06;10457185;28;20052;-64
2022/04/28 15:13:48;;;;;;;14.02;12.77;;;;;;;22.61;37.27;102878.28;10457101;28;20052;-64
2022/04/28 15:18:50;;;;;;;18.20;16.35;;;;;;;22.78;34.80;102871.63;10456939;28;20049;-64
2022/04/28 15:23:52;;;;;;;16.40;15.10;;;;;;;22.95;36.50;102870.34;10456923;28;20048;-64
2022/04/28 15:28:55;;;;;;;16.23;14.88;;;;;;;21.00;37.61;102864.09;10456092;28;20049;-64
2022/04/28 15:33:57;;;;;;;14.57;13.45;;;;;;;21.20;37.16;102860.06;10456750;28;20053;-64
2022/04/28 15:39:01;;;;;;;13.32;11.63;;;;;;;21.49;38.95;102859.81;10456634;28;20052;-64
2022/04/28 15:44:08;;;;;;;11.88;10.60;;;;;;;20.47;40.50;102855.25;10455982;28;20055;-64
2022/04/28 15:49:11;;;;;;;11.57;9.80;;;;;;;19.89;40.77;102847.53;10455247;28;20045;-64
2022/04/28 15:54:14;;;;;;;9.52;8.57;;;;;;;19.23;42.82;102857.81;10454579;28;20385;-64
2022/04/28 15:59:16;;;;;;;11.75;9.70;;;;;;;18.42;42.01;102844.91;10455074;28;20045;-64
2022/04/28 16:04:19;;;;;;;11.45;8.73;;;;;;;19.51;41.28;102852.59;10456179;28;20045;-64
2022/04/28 16:09:21;;;;;;;10.48;7.95;;;;;;;19.39;41.67;102847.09;10459676;28;20506;-64
2022/04/28 16:14:24;;;;;;;10.82;8.07;;;;;;;18.79;41.44;102852.50;10463667;28;20053;-64
2022/04/28 16:19:27;;;;;;;9.85;6.53;;;;;;;18.44;44.24;102852.78;10462363;28;20048;-64
2022/04/28 16:24:30;;;;;;;12.88;6.85;;;;;;;18.24;44.39;102848.63;10462878;28;20389;-64
2022/04/28 16:29:33;;;;;;;8.20;6.15;;;;;;;18.56;44.32;102846.78;10461089;28;20404;-64
2022/04/28 16:34:35;;;;;;;10.63;6.45;;;;;;;18.00;44.69;102839.38;10462923;28;20049;-64
2022/04/28 16:39:45;;;;;;;11.48;6.10;;;;;;;17.71;44.86;102848.91;10462157;28;20553;-64
2022/04/28 16:44:47;;;;;;;8.35;5.72;;;;;;;18.11;45.01;102851.16;10461882;28;20052;-64
2022/04/28 16:49:50;;;;;;;10.77;5.75;;;;;;;17.51;47.40;102852.63;10462190;28;20049;-63
2022/04/28 16:54:54;;;;;;;10.07;5.22;;;;;;;17.67;46.42;102839.44;10460988;28;20045;-64
2022/04/28 16:59:56;;;;;;;7.57;5.18;;;;;;;17.65;45.95;102838.63;10461918;28;20055;-64
2022/04/28 17:04:58;;;;;;;12.75;4.93;;;;;;;17.31;48.69;102843.13;10461748;28;20053;-64
2022/04/28 17:10:01;;;;;;;19.63;5.40;;;;;;;17.20;48.79;102833.13;10460826;28;20056;-64
2022/04/28 17:15:04;;;;;;;12.02;4.55;;;;;;;16.88;48.86;102835.66;10461388;28;20053;-64
2022/04/28 17:20:08;;;;;;;7.32;4.35;;;;;;;16.74;49.57;102824.88;10458916;28;20049;-64
2022/04/28 17:25:11;;;;;;;13.57;5.38;;;;;;;16.80;49.76;102834.31;10459141;28;20484;-64
2022/04/28 17:30:14;;;;;;;10.35;5.05;;;;;;;16.62;50.74;102844.03;10459976;28;20049;-64
2022/04/28 17:35:16;;;;;;;11.70;4.75;;;;;;;16.42;51.58;102843.25;10458874;28;20475;-65
2022/04/28 17:40:18;;;;;;;7.90;4.43;;;;;;;16.13;52.46;102839.41;10459703;28;20045;-65
2022/04/28 17:45:21;;;;;;;4.53;3.60;;;;;;;16.28;53.23;102846.56;10460204;28;20052;-64
2022/04/28 17:50:23;;;;;;;9.02;3.72;;;;;;;15.76;55.37;102843.78;10459340;28;20071;-64
2022/04/28 18:00:48;;;;;;;14.45;4.65;;;;;;;15.47;58.70;102851.25;10459599;28;20055;-64
2022/04/28 18:05:51;;;;;;;7.20;4.22;;;;;;;15.17;58.99;102854.31;10459457;28;20049;-64
2022/04/28 18:10:55;;;;;;;12.43;4.90;;;;;;;15.01;61.76;102859.44;10458558;28;20411;-64
2022/04/28 18:15:57;;;;;;;8.25;4.85;;;;;;;14.94;63.41;102857.09;10457176;28;20053;-64
2022/04/28 18:21:00;;;;;;;8.68;5.85;;;;;;;14.58;64.88;102860.38;10456956;28;20098;-64
2022/04/28 18:26:04;;;;;;;10.18;6.47;;;;;;;13.98;67.39;102860.13;10456816;28;20506;-65
2022/04/28 18:31:07;;;;;;;11.93;6.50;;;;;;;14.22;66.55;102874.09;10456452;28;20051;-64
2022/04/28 18:46:51;;;;;;;11.57;9.77;;;;;;;13.73;67.28;102887.38;10456404;28;20045;-64
2022/04/28 18:51:54;;;;;;;11.65;10.52;;;;;;;13.78;65.48;102893.31;10455833;28;20766;-64
2022/04/28 18:57:00;;;;;;;12.30;10.82;;;;;;;13.48;66.44;102892.69;10454154;28;20476;-64
2022/04/28 19:02:03;;;;;;;16.77;13.63;;;;;;;13.49;67.30;102899.69;10456583;28;20125;-64
2022/04/28 19:07:06;;;;;;;19.10;17.30;;;;;;;13.34;68.13;102908.97;10455578;28;20095;-64
2022/04/28 19:12:09;;;;;;;21.88;20.38;;;;;;;13.07;70.29;102911.63;10453912;28;20206;-64
2022/04/28 19:17:13;;;;;;;27.52;24.95;;;;;;;12.96;72.38;102917.25;10454806;28;20073;-64
2022/04/28 19:22:15;;;;;;;34.35;32.20;;;;;;;12.75;72.49;102917.97;10455456;28;20067;-64
2022/04/28 19:27:19;;;;;;;41.85;38.50;;;;;;;12.65;73.61;102920.03;10418043;28;1080373;-64
2022/04/28 19:32:22;;;;;;;49.08;45.92;;;;;;;12.57;74.83;102922.03;10455626;28;20049;-64
2022/04/28 19:37:24;;;;;;;45.65;42.28;;;;;;;12.82;72.41;102936.09;10455559;28;20049;-64
2022/04/28 19:42:27;;;;;;;61.28;56.55;;;;;;;12.51;74.96;102927.47;10458192;28;20049;-64
2022/04/28 19:47:30;;;;;;;78.18;73.05;;;;;;;12.33;74.94;102934.19;10464519;28;20041;-64
2022/04/28 19:52:33;;;;;;;79.03;74.15;;;;;;;12.12;76.02;102938.31;10463964;28;20052;-64
2022/04/28 19:57:36;;;;;;;81.38;76.53;;;;;;;12.23;75.50;102934.44;10464500;28;20048;-64
2022/04/28 20:02:38;;;;;;;98.43;92.85;;;;;;;12.21;76.01;102930.16;10463101;28;20049;-64
2022/04/28 20:07:42;;;;;;;96.03;90.43;;;;;;;12.24;76.12;102938.81;10462171;28;20051;-64
2022/04/28 20:12:48;;;;;;;113.63;107.25;;;;;;;11.86;77.65;102935.50;10463705;28;20488;-64
2022/04/28 20:17:51;;;;;;;115.85;109.68;;;;;;;11.98;76.90;102946.59;10463086;28;20055;-64
2022/04/28 20:22:54;;;;;;;110.95;104.93;;;;;;;12.03;76.27;102953.44;10463510;28;20076;-64
2022/04/28 20:27:57;;;;;;;129.07;122.43;;;;;;;11.84;76.83;102947.81;10462633;28;20053;-64
2022/04/28 20:33:00;;;;;;;153.75;145.73;;;;;;;11.75;78.55;102953.34;10462459;28;20045;-64
2022/04/28 20:38:03;;;;;;;162.65;154.48;;;;;;;11.98;77.01;102944.81;10462783;28;20041;-64
2022/04/28 20:43:06;;;;;;;178.95;170.07;;;;;;;11.70;78.67;102963.06;10462053;28;20059;-64
2022/04/28 20:48:09;;;;;;;178.90;169.23;;;;;;;11.61;78.29;102963.34;10462414;28;20045;-64
2022/04/28 20:53:13;;;;;;;186.52;176.65;;;;;;;11.41;78.89;102956.84;10460964;28;20075;-64
2022/04/28 20:58:17;;;;;;;186.00;175.40;;;;;;;11.62;78.01;102965.09;10461444;28;20488;-64
2022/04/28 21:03:19;;;;;;;208.38;197.25;;;;;;;11.60;79.70;102953.75;10461260;28;20498;-64
2022/04/28 21:08:22;;;;;;;222.10;210.25;;;;;;;11.09;82.48;102955.06;10460952;28;20088;-64
2022/04/28 21:13:25;;;;;;;214.02;203.35;;;;;;;10.93;83.27;102957.22;10459697;28;20510;-64
2022/04/28 21:18:27;;;;;;;242.07;229.95;;;;;;;10.87;83.92;102958.22;10460789;28;20392;-64
2022/04/28 21:23:29;;;;;;;237.85;226.25;;;;;;;11.11;81.57;102946.28;10459285;28;20053;-64
2022/04/28 21:28:36;;;;;;;260.77;248.10;;;;;;;10.97;82.79;102951.84;10460164;28;20075;-64
2022/04/28 21:33:39;;;;;;;274.52;261.42;;;;;;;10.84;85.01;102949.56;10460687;28;20061;-64
2022/04/28 21:38:43;;;;;;;269.13;255.95;;;;;;;11.07;81.97;102957.72;10460404;28;20045;-64
2022/04/28 21:43:45;;;;;;;289.50;275.33;;;;;;;10.94;83.86;102953.69;10504847;22;20053;-59
2022/04/28 21:48:48;;;;;;;282.77;269.13;;;;;;;11.05;81.72;102970.03;10501333;28;20040;-59
2022/04/28 21:53:54;;;;;;;318.33;302.50;;;;;;;10.21;87.75;102976.25;10500679;28;20554;-59
2022/04/28 21:58:56;;;;;;;300.45;285.95;;;;;;;10.12;89.27;102970.34;10500351;28;20066;-59
2022/04/28 22:14:57;;;;;;;310.52;295.27;;;;;;;9.88;90.31;102966.47;10497165;28;20048;-59
2022/04/28 22:19:59;;;;;;;308.77;293.77;;;;;;;10.17;90.34;102969.38;10500175;28;20047;-59
2022/04/28 22:25:02;;;;;;;313.27;298.05;;;;;;;10.18;89.92;102975.47;10499951;28;20079;-59
2022/04/28 22:30:11;;;;;;;316.85;301.85;;;;;;;9.78;92.39;102976.25;10499700;28;20055;-59
2022/04/28 22:35:29;;;;;;;310.15;295.27;;;;;;;9.96;90.48;102972.44;10499661;28;20131;-59
2022/04/28 22:40:31;;;;;;;298.20;283.77;;;;;;;9.83;91.19;102977.03;10499095;28;20056;-59
2022/04/28 22:45:33;;;;;;;291.13;276.85;;;;;;;9.70;93.92;102986.00;10498531;28;20135;-59
2022/04/28 22:50:36;;;;;;;292.40;278.48;;;;;;;9.85;94.63;102978.75;10498440;28;20123;-59
2022/04/28 22:55:56;;;;;;;291.45;277.27;;;;;;;9.54;94.92;102978.44;10498350;28;20045;-58
2022/04/28 23:00:59;;;;;;;277.58;264.20;;;;;;;9.48;93.90;102984.66;10498255;28;20048;-58
2022/04/28 23:06:02;;;;;;;272.98;259.65;;;;;;;9.33;95.17;102974.47;10498723;28;20102;-58
2022/04/28 23:11:04;;;;;;;261.83;249.25;;;;;;;8.93;96.35;102973.38;10499212;28;20048;-59
2022/04/28 23:16:07;;;;;;;250.57;237.85;;;;;;;9.36;95.45;102974.41;10498083;28;20056;-58
2022/04/28 23:21:09;;;;;;;260.33;247.70;;;;;;;9.55;91.98;102974.97;10497328;28;20044;-58
2022/04/28 23:26:11;;;;;;;235.50;223.38;;;;;;;8.88;97.76;102979.56;10497676;28;20377;-58
2022/04/28 23:31:14;;;;;;;227.32;216.10;;;;;;;8.98;96.37;102983.75;10497654;28;20130;-59
2022/04/28 23:46:58;;;;;;;209.85;199.50;;;;;;;8.67;99.39;102989.44;10497369;28;20395;-59
2022/04/28 23:52:01;;;;;;;182.77;173.43;;;;;;;8.40;100.00;102995.88;10497261;28;20057;-59